createdAt,value
2022-11-12T00:02:25.956Z,11.90
2022-11-12T00:05:11.406Z,12.83
2022-11-12T00:07:56.703Z,13.40
2022-11-12T00:10:42.116Z,13.37
2022-11-12T00:13:27.584Z,13.03
2022-11-12T00:16:12.775Z,11.80
2022-11-12T00:18:59.060Z,12.60
2022-11-12T00:21:44.435Z,13.17
2022-11-12T00:24:30.467Z,13.43
2022-11-12T00:27:15.859Z,12.63
2022-11-12T00:30:01.243Z,14.63
2022-11-12T00:32:46.586Z,11.73
2022-11-12T00:35:32.445Z,13.83
2022-11-12T00:38:17.688Z,12.77
2022-11-12T00:41:02.969Z,14.63
2022-11-12T00:43:47.955Z,15.27
2022-11-12T00:46:33.204Z,14.73
2022-11-12T00:49:18.121Z,15.03
2022-11-12T00:52:03.568Z,13.30
2022-11-12T00:54:48.914Z,13.07
2022-11-12T00:57:33.769Z,12.40
2022-11-12T01:00:19.271Z,12.70
2022-11-12T01:03:04.144Z,12.67
2022-11-12T01:05:49.304Z,11.60
2022-11-12T01:08:34.751Z,12.57
2022-11-12T01:11:24.583Z,14.00
2022-11-12T01:14:10.073Z,13.47
2022-11-12T01:16:55.236Z,12.00
2022-11-12T01:19:40.638Z,14.77
2022-11-12T01:22:25.748Z,12.37
2022-11-12T01:25:10.962Z,13.10
2022-11-12T01:27:56.103Z,14.00
2022-11-12T01:30:41.552Z,12.30
2022-11-12T01:33:26.867Z,12.17
2022-11-12T01:36:13.068Z,11.20
2022-11-12T01:38:58.225Z,11.50
2022-11-12T01:41:43.156Z,11.20
2022-11-12T01:44:31.343Z,13.53
2022-11-12T01:47:16.718Z,10.70
2022-11-12T01:50:14.932Z,12.97
2022-11-12T01:53:02.352Z,12.30
2022-11-12T01:55:55.804Z,11.70
2022-11-12T01:58:41.058Z,12.00
2022-11-12T02:01:26.544Z,11.80
2022-11-12T02:04:11.816Z,12.63
2022-11-12T02:06:57.490Z,11.70
2022-11-12T02:09:42.880Z,12.55
2022-11-12T02:12:46.658Z,14.47
2022-11-12T02:15:32.491Z,11.30
2022-11-12T02:18:17.888Z,12.93
2022-11-12T02:21:05.250Z,12.43
2022-11-12T02:23:59.804Z,11.10
2022-11-12T02:26:47.470Z,11.47
2022-11-12T02:29:33.317Z,11.90
2022-11-12T02:32:18.843Z,12.60
2022-11-12T02:35:04.455Z,11.23
2022-11-12T02:37:49.592Z,10.90
2022-11-12T02:40:35.288Z,10.97
2022-11-12T02:43:20.482Z,11.50
2022-11-12T02:46:06.643Z,13.13
2022-11-12T02:48:52.168Z,13.10
2022-11-12T02:51:37.583Z,12.10
2022-11-12T02:54:22.877Z,13.70
2022-11-12T02:57:08.052Z,11.53
2022-11-12T02:59:53.003Z,10.67
2022-11-12T03:02:43.083Z,12.30
2022-11-12T03:05:29.499Z,11.80
2022-11-12T03:08:14.635Z,12.10
2022-11-12T03:11:05.541Z,13.13
2022-11-12T03:13:50.950Z,11.47
2022-11-12T03:16:36.105Z,11.27
2022-11-12T03:19:21.235Z,13.43
2022-11-12T03:22:06.278Z,13.83
2022-11-12T03:24:51.353Z,12.53
2022-11-12T03:27:36.324Z,11.33
2022-11-12T03:30:22.771Z,11.47
2022-11-12T03:33:09.103Z,13.60
2022-11-12T03:35:53.961Z,11.47
2022-11-12T03:38:38.963Z,11.60
2022-11-12T03:41:24.135Z,11.87
2022-11-12T03:44:10.115Z,10.83
2022-11-12T03:46:55.386Z,11.00
2022-11-12T03:49:40.464Z,11.97
2022-11-12T03:52:25.563Z,11.60
2022-11-12T03:55:10.625Z,11.60
2022-11-12T03:57:56.402Z,13.17
2022-11-12T04:00:41.693Z,13.53
2022-11-12T04:03:26.582Z,12.90
2022-11-12T04:06:30.235Z,13.80
2022-11-12T04:09:15.486Z,11.37
2022-11-12T04:12:20.648Z,12.27
2022-11-12T04:15:06.191Z,9.40
2022-11-12T04:18:09.986Z,10.97
2022-11-12T04:21:13.540Z,11.73
2022-11-12T04:23:58.924Z,15.27
2022-11-12T04:26:43.863Z,13.80
2022-11-12T04:29:47.896Z,12.73
2022-11-12T04:32:34.127Z,13.43
2022-11-12T04:35:19.267Z,11.57
2022-11-12T04:38:04.223Z,13.30
2022-11-12T04:41:07.995Z,13.60
2022-11-12T04:44:12.087Z,13.47
2022-11-12T04:46:57.507Z,12.83
2022-11-12T04:49:42.859Z,13.70
2022-11-12T04:52:28.445Z,13.67
2022-11-12T04:55:13.852Z,13.67
2022-11-12T04:58:00.782Z,11.65
2022-11-12T05:00:45.748Z,13.57
2022-11-12T05:03:30.669Z,14.50
2022-11-12T05:06:34.658Z,15.20
2022-11-12T05:09:20.748Z,13.43
2022-11-12T05:12:06.240Z,10.03
2022-11-12T05:14:51.677Z,13.30
2022-11-12T05:17:37.164Z,13.73
2022-11-12T05:20:22.323Z,13.47
2022-11-12T05:23:08.063Z,12.90
2022-11-12T05:25:53.312Z,13.00
2022-11-12T05:28:38.195Z,13.10
2022-11-12T05:31:23.220Z,13.23
2022-11-12T05:34:08.347Z,15.20
2022-11-12T05:36:55.929Z,14.32
2022-11-12T05:39:41.051Z,12.10
2022-11-12T05:42:26.031Z,11.40
2022-11-12T05:45:11.335Z,13.30
2022-11-12T05:47:56.519Z,13.53
2022-11-12T05:51:06.236Z,11.70
2022-11-12T05:53:46.496Z,11.27
2022-11-12T05:56:31.613Z,12.48
2022-11-12T05:59:16.982Z,12.60
2022-11-12T06:02:01.904Z,12.25
2022-11-12T06:04:47.185Z,12.73
2022-11-12T06:07:32.320Z,13.20
2022-11-12T06:10:20.513Z,11.90
2022-11-12T06:13:06.304Z,11.85
2022-11-12T06:15:52.379Z,12.27
2022-11-12T06:18:37.552Z,10.23
2022-11-12T06:21:22.973Z,13.35
2022-11-12T06:24:08.420Z,12.07
2022-11-12T06:26:53.496Z,12.50
2022-11-12T06:29:38.779Z,11.77
2022-11-12T06:32:24.202Z,11.80
2022-11-12T06:35:09.700Z,11.23
2022-11-12T06:37:55.274Z,11.10
2022-11-12T06:40:40.222Z,11.65
2022-11-12T06:43:25.847Z,12.80
2022-11-12T06:46:13.727Z,12.18
2022-11-12T06:48:58.702Z,12.00
2022-11-12T06:51:43.601Z,14.18
2022-11-12T06:54:28.964Z,13.47
2022-11-12T06:57:14.126Z,14.80
2022-11-12T06:59:59.176Z,14.82
2022-11-12T07:02:44.824Z,12.13
2022-11-12T07:05:31.164Z,13.23
2022-11-12T07:08:16.311Z,13.90
2022-11-12T07:11:01.660Z,12.95
2022-11-12T07:13:47.086Z,13.85
2022-11-12T07:16:32.568Z,13.48
2022-11-12T07:19:17.994Z,12.63
2022-11-12T07:22:03.414Z,11.03
2022-11-12T07:24:48.538Z,11.27
2022-11-12T07:27:33.639Z,11.27
2022-11-12T07:30:18.822Z,11.10
2022-11-12T07:33:04.227Z,8.80
2022-11-12T07:35:49.694Z,11.30
2022-11-12T07:38:35.792Z,9.63
2022-11-12T07:41:22.641Z,9.37
2022-11-12T07:44:07.509Z,9.73
2022-11-12T07:46:52.460Z,9.80
2022-11-12T07:49:37.438Z,10.67
2022-11-12T07:52:22.495Z,9.10
2022-11-12T07:55:07.816Z,9.63
2022-11-12T07:57:53.604Z,8.83
2022-11-12T08:00:38.842Z,8.30
2022-11-12T08:03:23.640Z,8.50
2022-11-12T08:06:08.673Z,8.30
2022-11-12T08:08:54.549Z,8.40
2022-11-12T08:11:39.544Z,14.53
2022-11-12T08:14:24.879Z,7.77
2022-11-12T08:17:10.142Z,8.40
2022-11-12T08:19:55.421Z,9.03
2022-11-12T08:22:44.999Z,8.80
2022-11-12T08:25:33.566Z,6.40
2022-11-12T08:28:18.410Z,7.80
2022-11-12T08:31:08.405Z,8.07
2022-11-12T08:33:53.658Z,6.80
2022-11-12T08:36:40.255Z,7.97
2022-11-12T08:39:25.799Z,8.43
2022-11-12T08:42:10.891Z,8.60
2022-11-12T08:44:56.194Z,8.87
2022-11-12T08:47:41.412Z,9.23
2022-11-12T08:50:26.670Z,7.53
2022-11-12T08:53:13.279Z,8.43
2022-11-12T08:55:58.328Z,9.93
2022-11-12T08:58:43.720Z,11.10
2022-11-12T09:01:29.709Z,9.00
2022-11-12T09:04:14.902Z,9.13
2022-11-12T09:07:00.018Z,8.60
2022-11-12T09:09:45.012Z,7.70
2022-11-12T09:12:30.426Z,7.70
2022-11-12T09:15:36.401Z,6.03
2022-11-12T09:18:21.299Z,5.73
2022-11-12T09:21:08.447Z,5.20
2022-11-12T09:23:53.807Z,6.33
2022-11-12T09:26:38.867Z,6.70
2022-11-12T09:29:23.922Z,5.40
2022-11-12T09:32:09.052Z,5.40
2022-11-12T09:34:54.301Z,5.43
2022-11-12T09:37:39.768Z,6.30
2022-11-12T09:40:32.179Z,5.40
2022-11-12T09:43:37.687Z,6.67
2022-11-12T09:46:29.140Z,5.60
2022-11-12T09:49:25.492Z,5.30
2022-11-12T09:52:16.641Z,5.10
2022-11-12T09:55:22.219Z,6.13
2022-11-12T09:58:14.683Z,7.20
2022-11-12T10:01:03.425Z,5.80
2022-11-12T10:04:07.165Z,5.30
2022-11-12T10:07:01.306Z,3.77
2022-11-12T10:09:46.402Z,6.23
2022-11-12T10:12:34.502Z,6.63
2022-11-12T10:15:55.251Z,6.90
2022-11-12T10:18:59.076Z,5.70
2022-11-12T10:21:50.434Z,5.00
2022-11-12T10:24:37.504Z,4.93
2022-11-12T10:27:26.274Z,6.07
2022-11-12T10:30:18.910Z,6.27
2022-11-12T10:33:04.403Z,7.47
2022-11-12T10:35:51.166Z,6.20
2022-11-12T10:38:36.903Z,5.77
2022-11-12T10:41:25.584Z,4.10
2022-11-12T10:44:15.026Z,6.80
2022-11-12T10:47:32.964Z,7.40
2022-11-12T10:50:20.950Z,5.70
2022-11-12T10:53:08.240Z,5.93
2022-11-12T10:56:00.602Z,4.80
2022-11-12T10:58:46.257Z,6.27
2022-11-12T11:01:35.482Z,5.30
2022-11-12T11:04:24.438Z,5.03
2022-11-12T11:07:24.488Z,5.40
2022-11-12T11:10:22.684Z,4.53
2022-11-12T11:13:28.162Z,4.80
2022-11-12T11:16:15.085Z,5.43
2022-11-12T11:19:05.121Z,5.20
2022-11-12T11:21:50.567Z,5.40
2022-11-12T11:24:39.335Z,5.87
2022-11-12T11:27:28.911Z,4.70
2022-11-12T11:30:18.715Z,5.97
2022-11-12T11:33:06.845Z,5.67
2022-11-12T11:35:51.860Z,4.67
2022-11-12T11:38:52.131Z,5.27
2022-11-12T11:41:40.609Z,5.93
2022-11-12T11:44:32.837Z,4.77
2022-11-12T11:47:21.231Z,4.20
2022-11-12T11:50:27.166Z,4.07
2022-11-12T11:53:23.908Z,4.43
2022-11-12T11:56:19.739Z,4.67
2022-11-12T11:59:11.021Z,4.60
2022-11-12T12:02:17.600Z,3.77
2022-11-12T12:05:21.723Z,3.57
2022-11-12T12:08:11.674Z,3.70
2022-11-12T12:11:08.523Z,4.23
2022-11-12T12:13:54.033Z,4.60
2022-11-12T12:16:42.162Z,3.63
2022-11-12T12:19:33.440Z,4.30
2022-11-12T12:22:21.301Z,4.20
2022-11-12T12:25:16.530Z,3.00
2022-11-12T12:28:05.992Z,5.07
2022-11-12T12:30:52.620Z,4.13
2022-11-12T12:33:43.056Z,3.20
2022-11-12T12:36:34.438Z,4.30
2022-11-12T12:39:44.955Z,3.93
2022-11-12T12:42:38.270Z,4.57
2022-11-12T12:45:35.720Z,5.67
2022-11-12T12:48:24.485Z,6.00
2022-11-12T12:51:09.916Z,5.70
2022-11-12T12:53:55.227Z,5.73
2022-11-12T12:56:44.644Z,5.63
2022-11-12T12:59:30.236Z,5.37
2022-11-12T13:02:22.559Z,5.83
2022-11-12T13:05:22.472Z,5.60
2022-11-12T13:08:12.587Z,5.67
2022-11-12T13:10:59.700Z,6.13
2022-11-12T13:13:45.024Z,6.53
2022-11-12T13:16:48.952Z,5.60
2022-11-12T13:19:52.894Z,6.30
2022-11-12T13:22:37.939Z,5.77
2022-11-12T13:25:25.195Z,6.60
2022-11-12T13:28:10.787Z,6.30
2022-11-12T13:30:56.532Z,6.07
2022-11-12T13:33:42.275Z,6.60
2022-11-12T13:36:28.894Z,6.87
2022-11-12T13:39:16.269Z,5.63
2022-11-12T13:42:21.811Z,6.80
2022-11-12T13:45:06.994Z,6.57
2022-11-12T13:47:52.990Z,7.33
2022-11-12T13:50:40.606Z,6.53
2022-11-12T13:53:27.069Z,7.67
2022-11-12T13:56:12.875Z,6.53
2022-11-12T13:59:17.666Z,7.07
2022-11-12T14:02:05.263Z,6.33
2022-11-12T14:04:51.654Z,7.73
2022-11-12T14:07:45.725Z,6.90
2022-11-12T14:10:46.047Z,7.20
2022-11-12T14:13:34.838Z,6.73
2022-11-12T14:16:30.824Z,6.60
2022-11-12T14:19:16.295Z,6.93
2022-11-12T14:22:21.519Z,7.30
2022-11-12T14:25:20.532Z,7.10
2022-11-12T14:28:06.361Z,6.60
2022-11-12T14:30:51.706Z,6.83
2022-11-12T14:33:37.059Z,6.23
2022-11-12T14:36:23.225Z,6.67
2022-11-12T14:39:10.740Z,7.60
2022-11-12T14:41:58.053Z,7.80
2022-11-12T14:44:44.272Z,5.37
2022-11-12T14:47:30.722Z,6.43
2022-11-12T14:50:37.510Z,7.73
2022-11-12T14:53:32.637Z,7.60
2022-11-12T14:56:23.807Z,7.40
2022-11-12T14:59:11.003Z,8.40
2022-11-12T15:02:33.549Z,8.97
2022-11-12T15:05:20.802Z,9.10
2022-11-12T15:08:10.413Z,9.87
2022-11-12T15:10:56.147Z,8.43
2022-11-12T15:13:42.535Z,8.33
2022-11-12T15:16:29.612Z,9.07
2022-11-12T15:19:41.716Z,10.37
2022-11-12T15:22:27.223Z,10.07
2022-11-12T15:25:13.147Z,10.27
2022-11-12T15:28:21.835Z,7.90
2022-11-12T15:31:18.808Z,9.73
2022-11-12T15:34:24.339Z,9.13
2022-11-12T15:37:19.301Z,9.13
2022-11-12T15:40:11.180Z,8.47
2022-11-12T15:42:57.614Z,10.20
2022-11-12T15:45:43.089Z,9.33
2022-11-12T15:48:28.054Z,9.30
2022-11-12T15:51:14.676Z,8.80
2022-11-12T15:54:00.089Z,9.93
2022-11-12T15:56:45.512Z,8.77
2022-11-12T15:59:31.329Z,9.93
2022-11-12T16:02:16.791Z,9.67
2022-11-12T16:05:02.267Z,11.27
2022-11-12T16:07:47.603Z,11.37
2022-11-12T16:10:33.151Z,11.17
2022-11-12T16:13:24.531Z,10.70
2022-11-12T16:16:10.878Z,10.17
2022-11-12T16:18:56.111Z,10.63
2022-11-12T16:21:41.583Z,9.97
2022-11-12T16:24:27.456Z,9.80
2022-11-12T16:27:13.856Z,11.53
2022-11-12T16:29:59.312Z,11.27
2022-11-12T16:32:45.147Z,10.13
2022-11-12T16:35:32.934Z,10.53
2022-11-12T16:38:19.261Z,8.87
2022-11-12T16:41:04.128Z,9.97
2022-11-12T16:43:51.097Z,9.80
2022-11-12T16:46:47.892Z,10.53
2022-11-12T16:49:38.247Z,10.97
2022-11-12T16:52:24.004Z,10.23
2022-11-12T16:55:10.271Z,11.77
2022-11-12T16:57:55.509Z,12.57
2022-11-12T17:00:41.674Z,11.83
2022-11-12T17:03:27.372Z,10.73
2022-11-12T17:06:12.968Z,11.23
2022-11-12T17:08:58.481Z,12.43
2022-11-12T17:11:44.107Z,11.77
2022-11-12T17:14:29.658Z,11.47
2022-11-12T17:17:14.808Z,12.77
2022-11-12T17:20:00.427Z,12.07
2022-11-12T17:22:45.699Z,11.60
2022-11-12T17:25:30.668Z,11.20
2022-11-12T17:28:16.029Z,11.67
2022-11-12T17:31:14.864Z,11.20
2022-11-12T17:33:59.909Z,11.60
2022-11-12T17:36:44.993Z,11.47
2022-11-12T17:39:30.128Z,11.77
2022-11-12T17:42:15.432Z,12.70
2022-11-12T17:45:00.527Z,14.70
2022-11-12T17:47:45.480Z,12.47
2022-11-12T17:50:30.554Z,12.10
2022-11-12T17:53:16.135Z,12.17
2022-11-12T17:56:01.817Z,11.93
2022-11-12T17:58:47.323Z,11.30
2022-11-12T18:01:32.888Z,11.40
2022-11-12T18:04:18.206Z,13.53
2022-11-12T18:07:03.303Z,11.27
2022-11-12T18:09:48.225Z,10.57
2022-11-12T18:12:33.413Z,11.93
2022-11-12T18:15:18.507Z,10.17
2022-11-12T18:18:04.622Z,9.30
2022-11-12T18:20:50.375Z,9.60
2022-11-12T18:23:46.145Z,7.63
2022-11-12T18:27:00.841Z,9.37
2022-11-12T18:29:46.968Z,9.60
2022-11-12T18:32:32.256Z,8.80
2022-11-12T18:35:18.439Z,10.00
2022-11-12T18:38:03.949Z,9.17
2022-11-12T18:40:49.272Z,9.00
2022-11-12T18:43:57.756Z,8.20
2022-11-12T18:47:00.985Z,8.73
2022-11-12T18:49:46.374Z,8.30
2022-11-12T18:52:31.502Z,8.57
2022-11-12T18:55:16.676Z,7.00
2022-11-12T18:58:02.140Z,8.60
2022-11-12T19:00:47.944Z,9.13
2022-11-12T19:03:33.124Z,7.43
2022-11-12T19:06:18.181Z,7.13
2022-11-12T19:09:03.593Z,7.43
2022-11-12T19:11:48.935Z,8.00
2022-11-12T19:14:34.174Z,9.37
2022-11-12T19:17:19.766Z,7.07
2022-11-12T19:20:05.481Z,8.10
2022-11-12T19:22:50.527Z,8.80
2022-11-12T19:25:35.826Z,7.27
2022-11-12T19:28:21.481Z,7.10
2022-11-12T19:31:08.188Z,6.60
2022-11-12T19:33:53.600Z,7.30
2022-11-12T19:36:39.039Z,9.27
2022-11-12T19:39:24.260Z,8.10
2022-11-12T19:42:09.792Z,9.23
2022-11-12T19:44:55.026Z,9.83
2022-11-12T19:47:40.683Z,8.83
2022-11-12T19:50:26.103Z,11.40
2022-11-12T19:53:11.192Z,10.63
2022-11-12T19:55:59.344Z,9.70
2022-11-12T19:58:45.343Z,9.90
2022-11-12T20:01:30.852Z,10.33
2022-11-12T20:04:18.940Z,10.90
2022-11-12T20:07:08.325Z,9.97
2022-11-12T20:09:59.568Z,9.03
2022-11-12T20:12:46.694Z,10.80
2022-11-12T20:15:32.076Z,10.67
2022-11-12T20:18:36.241Z,11.27
2022-11-12T20:21:22.023Z,9.87
2022-11-12T20:24:09.338Z,10.77
2022-11-12T20:26:54.344Z,9.63
2022-11-12T20:29:39.212Z,10.27
2022-11-12T20:32:24.443Z,7.47
2022-11-12T20:35:17.844Z,10.27
2022-11-12T20:38:06.152Z,7.97
2022-11-12T20:40:56.638Z,9.87
2022-11-12T20:43:42.259Z,10.73
2022-11-12T20:46:42.226Z,9.40
2022-11-12T20:49:27.527Z,10.77
2022-11-12T20:52:12.939Z,10.33
2022-11-12T20:54:57.978Z,11.53
2022-11-12T20:57:43.493Z,9.93
2022-11-12T21:00:29.152Z,8.97
2022-11-12T21:03:14.825Z,10.20
2022-11-12T21:06:01.118Z,8.93
2022-11-12T21:08:46.988Z,9.07
2022-11-12T21:11:32.305Z,9.50
2022-11-12T21:14:17.685Z,11.80
2022-11-12T21:17:03.097Z,11.73
2022-11-12T21:19:48.229Z,10.90
2022-11-12T21:22:33.976Z,11.83
2022-11-12T21:25:19.209Z,11.20
2022-11-12T21:28:04.915Z,11.80
2022-11-12T21:30:52.212Z,11.73
2022-11-12T21:33:38.243Z,11.30
2022-11-12T21:36:23.495Z,11.47
2022-11-12T21:39:10.194Z,12.50
2022-11-12T21:41:55.367Z,12.87
2022-11-12T21:44:40.381Z,13.00
2022-11-12T21:47:25.266Z,12.93
2022-11-12T21:50:10.327Z,13.70
2022-11-12T21:52:58.422Z,11.87
2022-11-12T21:55:43.274Z,11.90
2022-11-12T21:58:29.126Z,12.33
2022-11-12T22:01:17.189Z,10.70
2022-11-12T22:04:05.228Z,11.93
2022-11-12T22:06:50.354Z,11.77
2022-11-12T22:09:35.737Z,11.90
2022-11-12T22:12:20.865Z,11.70
2022-11-12T22:15:06.113Z,12.23
2022-11-12T22:17:51.448Z,11.23
2022-11-12T22:20:36.677Z,11.77
2022-11-12T22:23:22.022Z,11.03
2022-11-12T22:26:09.684Z,11.23
2022-11-12T22:28:55.832Z,11.00
2022-11-12T22:31:40.770Z,11.07
2022-11-12T22:34:25.793Z,11.67
2022-11-12T22:37:11.753Z,11.20
2022-11-12T22:39:57.103Z,12.10
2022-11-12T22:42:42.274Z,12.10
2022-11-12T22:45:27.835Z,11.80
2022-11-12T22:48:12.863Z,11.03
2022-11-12T22:51:02.365Z,11.03
2022-11-12T22:53:47.970Z,10.80
2022-11-12T22:56:36.774Z,10.00
2022-11-12T22:59:22.875Z,10.73
2022-11-12T23:02:08.460Z,10.80
2022-11-12T23:04:53.440Z,10.27
2022-11-12T23:07:38.876Z,10.87
2022-11-12T23:10:23.782Z,10.77
2022-11-12T23:13:08.975Z,10.70
2022-11-12T23:15:55.336Z,10.07
2022-11-12T23:18:40.619Z,10.27
2022-11-12T23:21:27.200Z,10.00
2022-11-12T23:24:12.267Z,10.80
2022-11-12T23:26:57.271Z,9.93
2022-11-12T23:29:42.493Z,9.90
2022-11-12T23:32:28.110Z,8.70
2022-11-12T23:35:13.464Z,10.63
2022-11-12T23:37:58.704Z,10.10
2022-11-12T23:40:51.823Z,10.10
2022-11-12T23:43:37.331Z,10.50
2022-11-12T23:46:22.720Z,10.20
2022-11-12T23:49:07.835Z,9.73
2022-11-12T23:51:53.099Z,9.93
2022-11-12T23:54:38.668Z,10.40
2022-11-12T23:57:24.073Z,7.77
